createdAt,value
2018-04-12T00:00:53.687Z,9.18
2018-04-12T00:03:22.584Z,10.57
2018-04-12T00:05:50.744Z,12.10
2018-04-12T00:08:18.870Z,9.77
2018-04-12T00:10:47.028Z,10.05
2018-04-12T00:13:15.164Z,10.32
2018-04-12T00:15:43.321Z,8.98
2018-04-12T00:18:11.456Z,10.65
2018-04-12T00:20:39.618Z,11.02
2018-04-12T00:23:07.760Z,10.60
2018-04-12T00:25:35.913Z,9.70
2018-04-12T00:28:04.046Z,9.85
2018-04-12T00:30:32.208Z,10.85
2018-04-12T00:33:00.339Z,9.60
2018-04-12T00:38:02.920Z,9.55
2018-04-12T00:40:31.086Z,10.07
2018-04-12T00:42:59.224Z,9.35
2018-04-12T00:45:27.380Z,10.50
2018-04-12T00:47:55.519Z,10.77
2018-04-12T00:50:23.695Z,10.20
2018-04-12T00:52:51.829Z,10.30
2018-04-12T00:55:19.955Z,9.48
2018-04-12T00:57:48.120Z,10.52
2018-04-12T01:00:16.253Z,10.02
2018-04-12T01:02:44.417Z,10.35
2018-04-12T01:05:12.552Z,10.80
2018-04-12T01:07:40.712Z,10.57
2018-04-12T01:10:08.844Z,10.73
2018-04-12T01:12:37.001Z,9.73
2018-04-12T01:15:05.135Z,9.80
2018-04-12T01:17:33.290Z,9.90
2018-04-12T01:20:01.421Z,9.40
2018-04-12T01:22:29.575Z,9.57
2018-04-12T01:24:57.716Z,9.60
2018-04-12T01:27:25.873Z,9.68
2018-04-12T01:29:54.006Z,10.93
2018-04-12T01:32:22.165Z,11.35
2018-04-12T01:34:50.300Z,10.00
2018-04-12T01:37:18.466Z,11.05
2018-04-12T01:39:46.621Z,11.10
2018-04-12T01:42:14.784Z,11.05
2018-04-12T01:44:42.912Z,10.88
2018-04-12T01:47:11.069Z,11.38
2018-04-12T01:49:39.204Z,12.10
2018-04-12T01:52:07.363Z,10.55
2018-04-12T01:54:35.494Z,12.10
2018-04-12T01:57:03.652Z,11.85
2018-04-12T01:59:31.788Z,12.07
2018-04-12T02:01:59.952Z,11.45
2018-04-12T02:04:28.088Z,11.70
2018-04-12T02:06:56.249Z,11.73
2018-04-12T02:09:24.388Z,11.20
2018-04-12T02:11:52.550Z,12.02
2018-04-12T02:14:20.688Z,10.85
2018-04-12T02:16:48.840Z,11.45
2018-04-12T02:19:16.969Z,11.70
2018-04-12T02:21:45.149Z,12.40
2018-04-12T02:24:13.279Z,11.23
2018-04-12T02:26:41.415Z,11.65
2018-04-12T02:29:09.572Z,13.43
2018-04-12T02:31:37.712Z,14.60
2018-04-12T02:34:06.631Z,13.18
2018-04-12T02:36:34.764Z,11.77
2018-04-12T02:39:03.685Z,13.27
2018-04-12T02:41:31.816Z,11.70
2018-04-12T02:43:59.980Z,13.48
2018-04-12T02:46:28.118Z,12.48
2018-04-12T02:48:56.275Z,14.32
2018-04-12T02:51:24.411Z,14.27
2018-04-12T02:53:52.576Z,13.25
2018-04-12T02:56:20.708Z,13.38
2018-04-12T02:58:48.869Z,14.32
2018-04-12T03:01:16.999Z,15.35
2018-04-12T03:03:45.167Z,12.23
2018-04-12T03:06:13.304Z,14.00
2018-04-12T03:08:41.460Z,14.48
2018-04-12T03:11:09.597Z,15.85
2018-04-12T03:13:38.518Z,14.02
2018-04-12T03:16:06.656Z,14.87
2018-04-12T03:18:34.812Z,13.95
2018-04-12T03:21:02.956Z,14.95
2018-04-12T03:23:31.117Z,16.27
2018-04-12T03:25:59.258Z,16.77
2018-04-12T03:28:28.181Z,14.27
2018-04-12T03:30:56.321Z,16.35
2018-04-12T03:33:25.256Z,16.83
2018-04-12T03:35:53.390Z,16.25
2018-04-12T03:38:22.318Z,16.75
2018-04-12T03:40:50.456Z,16.62
2018-04-12T03:43:19.376Z,16.75
2018-04-12T03:45:47.520Z,16.77
2018-04-12T03:48:16.448Z,19.25
2018-04-12T03:50:44.584Z,20.95
2018-04-12T03:53:13.506Z,19.17
2018-04-12T03:55:41.649Z,17.62
2018-04-12T03:58:10.577Z,17.67
2018-04-12T04:00:38.715Z,18.48
2018-04-12T04:03:07.619Z,17.95
2018-04-12T04:05:35.784Z,18.40
2018-04-12T04:08:03.916Z,18.77
2018-04-12T04:10:32.077Z,18.30
2018-04-12T04:13:00.212Z,18.95
2018-04-12T04:15:40.117Z,19.83
2018-04-12T04:18:20.017Z,20.12
2018-04-12T04:20:57.893Z,19.98
2018-04-12T04:23:26.053Z,19.30
2018-04-12T04:25:54.179Z,18.48
2018-04-12T04:28:22.321Z,21.35
2018-04-12T04:30:50.488Z,20.92
2018-04-12T04:33:18.624Z,21.55
2018-04-12T04:35:46.779Z,21.75
2018-04-12T04:38:14.924Z,21.90
2018-04-12T04:40:43.104Z,22.55
2018-04-12T04:43:11.240Z,25.12
2018-04-12T04:45:40.174Z,21.95
2018-04-12T04:48:08.309Z,23.65
2018-04-12T04:50:37.228Z,21.45
2018-04-12T04:53:05.360Z,21.77
2018-04-12T04:55:33.516Z,22.15
2018-04-12T04:58:01.652Z,20.65
2018-04-12T05:00:29.805Z,22.58
2018-04-12T05:02:57.941Z,23.42
2018-04-12T05:05:26.100Z,25.67
2018-04-12T05:07:54.293Z,22.08
2018-04-12T05:10:22.449Z,23.58
2018-04-12T05:12:50.584Z,25.02
2018-04-12T05:15:18.744Z,24.05
2018-04-12T05:17:46.880Z,24.37
2018-04-12T05:20:15.039Z,25.23
2018-04-12T05:22:43.168Z,24.50
2018-04-12T05:25:11.324Z,26.33
2018-04-12T05:27:39.460Z,26.33
2018-04-12T05:30:07.615Z,24.10
2018-04-12T05:32:35.754Z,23.33
2018-04-12T05:35:03.913Z,25.25
2018-04-12T05:37:32.052Z,25.75
2018-04-12T05:40:00.209Z,24.33
2018-04-12T05:42:28.351Z,24.45
2018-04-12T05:44:56.504Z,25.77
2018-04-12T05:47:24.640Z,26.10
2018-04-12T05:49:52.791Z,22.65
2018-04-12T05:52:20.931Z,25.08
2018-04-12T05:54:49.862Z,23.60
2018-04-12T05:57:17.996Z,24.80
2018-04-12T05:59:46.925Z,24.42
2018-04-12T06:02:15.060Z,24.25
2018-04-12T06:04:43.996Z,24.90
2018-04-12T06:07:12.130Z,22.45
2018-04-12T06:09:40.284Z,24.65
2018-04-12T06:12:08.436Z,23.95
2018-04-12T06:14:36.568Z,23.02
2018-04-12T06:17:04.737Z,23.75
2018-04-12T06:19:32.868Z,24.27
2018-04-12T06:22:01.031Z,24.02
2018-04-12T06:24:29.170Z,27.98
2018-04-12T06:26:57.323Z,25.70
2018-04-12T06:29:25.467Z,25.42
2018-04-12T06:31:53.619Z,24.12
2018-04-12T06:34:21.756Z,24.27
2018-04-12T06:36:49.912Z,24.70
2018-04-12T06:39:18.052Z,23.48
2018-04-12T06:41:46.204Z,24.87
2018-04-12T06:44:14.339Z,23.62
2018-04-12T06:46:42.503Z,26.75
2018-04-12T06:49:10.661Z,24.52
2018-04-12T06:51:39.588Z,26.12
2018-04-12T06:54:07.977Z,27.48
2018-04-12T06:56:36.952Z,27.13
2018-04-12T06:59:05.257Z,27.10
2018-04-12T07:01:33.415Z,26.90
2018-04-12T07:04:01.554Z,24.85
2018-04-12T07:06:29.709Z,25.45
2018-04-12T07:08:57.840Z,24.25
2018-04-12T07:11:26.399Z,23.40
2018-04-12T07:13:54.583Z,26.80
2018-04-12T07:16:22.744Z,25.62
2018-04-12T07:18:50.910Z,25.40
2018-04-12T07:21:19.186Z,26.65
2018-04-12T07:23:47.333Z,24.95
2018-04-12T07:26:16.437Z,26.27
2018-04-12T07:28:44.755Z,25.48
2018-04-12T07:31:13.067Z,22.45
2018-04-12T07:33:41.297Z,25.08
2018-04-12T07:36:09.661Z,25.35
2018-04-12T07:38:37.906Z,24.37
2018-04-12T07:41:07.049Z,23.27
2018-04-12T07:43:35.508Z,25.35
2018-04-12T07:46:03.709Z,26.35
2018-04-12T07:48:31.857Z,23.40
2018-04-12T07:51:00.026Z,23.87
2018-04-12T07:53:28.203Z,25.77
2018-04-12T07:55:56.376Z,23.85
2018-04-12T07:58:24.565Z,23.95
2018-04-12T08:00:52.735Z,23.00
2018-04-12T08:03:20.880Z,23.27
2018-04-12T08:05:49.044Z,22.10
2018-04-12T08:08:17.948Z,23.25
2018-04-12T08:10:46.888Z,22.33
2018-04-12T08:13:15.046Z,23.95
2018-04-12T08:15:43.247Z,21.35
2018-04-12T08:18:12.044Z,21.45
2018-04-12T08:20:40.467Z,23.73
2018-04-12T08:23:08.696Z,23.10
2018-04-12T08:25:36.840Z,21.75
2018-04-12T08:28:05.062Z,22.75
2018-04-12T08:30:34.094Z,21.70
2018-04-12T08:33:02.276Z,23.35
2018-04-12T08:35:30.418Z,21.42
2018-04-12T08:37:58.644Z,21.25
2018-04-12T08:40:26.793Z,24.25
2018-04-12T08:42:55.101Z,20.95
2018-04-12T08:45:23.266Z,22.00
2018-04-12T08:47:51.506Z,22.83
2018-04-12T08:50:19.647Z,22.05
2018-04-12T08:52:47.821Z,21.97
2018-04-12T08:55:16.097Z,22.17
2018-04-12T08:57:44.293Z,22.00
2018-04-12T09:00:12.537Z,22.90
2018-04-12T09:02:40.708Z,23.33
2018-04-12T09:05:08.867Z,23.60
2018-04-12T09:07:37.048Z,23.67
2018-04-12T09:10:05.200Z,23.80
2018-04-12T09:12:33.491Z,23.00
2018-04-12T09:15:01.645Z,22.83
2018-04-12T09:17:29.811Z,23.98
2018-04-12T09:19:57.953Z,22.10
2018-04-12T09:22:26.880Z,22.87
2018-04-12T09:24:55.043Z,27.10
2018-04-12T09:27:23.209Z,23.87
2018-04-12T09:29:51.344Z,23.05
2018-04-12T09:32:19.511Z,26.25
2018-04-12T09:34:47.653Z,24.37
2018-04-12T09:37:15.820Z,23.83
2018-04-12T09:39:43.968Z,23.62
2018-04-12T09:42:12.145Z,23.90
2018-04-12T09:44:40.284Z,25.17
2018-04-12T09:47:08.447Z,25.85
2018-04-12T09:49:36.592Z,23.55
2018-04-12T09:52:04.752Z,23.45
2018-04-12T09:54:32.913Z,24.70
2018-04-12T09:57:01.080Z,23.48
2018-04-12T09:59:29.267Z,22.85
2018-04-12T10:02:07.355Z,23.20
2018-04-12T10:04:41.233Z,24.58
2018-04-12T10:07:09.399Z,24.20
2018-04-12T10:09:38.538Z,24.58
2018-04-12T10:12:06.715Z,23.40
2018-04-12T10:14:34.880Z,24.83
2018-04-12T10:17:03.074Z,26.12
2018-04-12T10:19:31.213Z,22.75
2018-04-12T10:21:59.380Z,25.00
2018-04-12T10:24:28.308Z,23.23
2018-04-12T10:26:56.458Z,24.98
2018-04-12T10:29:25.387Z,24.63
2018-04-12T10:31:53.531Z,24.05
2018-04-12T10:34:21.714Z,24.05
2018-04-12T10:36:49.856Z,23.90
2018-04-12T10:39:18.061Z,23.60
2018-04-12T10:41:46.975Z,24.85
2018-04-12T10:44:15.137Z,25.15
2018-04-12T10:46:43.333Z,23.42
2018-04-12T10:49:11.472Z,24.20
2018-04-12T10:51:39.611Z,24.58
2018-04-12T10:54:08.555Z,25.40
2018-04-12T10:56:36.707Z,23.60
2018-04-12T10:59:04.869Z,24.58
2018-04-12T11:01:33.026Z,24.60
2018-04-12T11:04:02.509Z,24.87
2018-04-12T11:06:30.669Z,25.73
2018-04-12T11:09:00.354Z,24.15
2018-04-12T11:11:28.500Z,24.48
2018-04-12T11:13:56.681Z,24.83
2018-04-12T11:16:24.828Z,24.60
2018-04-12T11:18:53.016Z,26.10
2018-04-12T11:21:21.933Z,26.65
2018-04-12T11:23:50.116Z,25.42
2018-04-12T11:26:18.265Z,23.20
2018-04-12T11:28:46.468Z,25.40
2018-04-12T11:31:14.924Z,27.40
2018-04-12T11:33:43.118Z,25.95
2018-04-12T11:36:11.268Z,27.33
2018-04-12T11:38:39.432Z,25.58
2018-04-12T11:41:08.343Z,26.58
2018-04-12T11:43:36.508Z,27.33
2018-04-12T11:46:04.652Z,26.15
2018-04-12T11:48:32.834Z,25.95
2018-04-12T11:51:00.985Z,27.35
2018-04-12T11:53:29.181Z,25.33
2018-04-12T11:55:57.384Z,28.35
2018-04-12T11:58:25.545Z,25.92
2018-04-12T12:00:53.737Z,25.33
2018-04-12T12:03:21.942Z,27.00
2018-04-12T12:05:50.224Z,26.58
2018-04-12T12:08:18.416Z,24.35
2018-04-12T12:10:47.353Z,25.77
2018-04-12T12:13:15.496Z,26.95
2018-04-12T12:15:44.427Z,27.25
2018-04-12T12:18:12.579Z,27.52
2018-04-12T12:20:40.744Z,27.48
2018-04-12T12:23:08.892Z,26.15
2018-04-12T12:25:37.060Z,25.67
2018-04-12T12:28:05.219Z,29.00
2018-04-12T12:30:33.398Z,27.42
2018-04-12T12:33:01.549Z,26.87
2018-04-12T12:35:29.721Z,26.17
2018-04-12T12:37:57.929Z,27.23
2018-04-12T12:40:26.116Z,26.95
2018-04-12T12:42:55.044Z,27.40
2018-04-12T12:45:23.255Z,25.75
2018-04-12T12:47:51.481Z,27.87
2018-04-12T12:50:19.662Z,27.15
2018-04-12T12:52:47.818Z,27.58
2018-04-12T12:55:16.003Z,27.60
2018-04-12T12:57:44.146Z,28.42
2018-04-12T13:00:13.101Z,28.83
2018-04-12T13:02:41.340Z,27.15
2018-04-12T13:05:09.932Z,28.40
2018-04-12T13:07:38.195Z,25.17
2018-04-12T13:10:06.678Z,27.70
2018-04-12T13:12:35.588Z,27.30
2018-04-12T13:15:03.800Z,28.67
2018-04-12T13:17:31.944Z,27.33
2018-04-12T13:20:00.141Z,29.40
2018-04-12T13:22:28.288Z,28.85
2018-04-12T13:24:56.491Z,27.23
2018-04-12T13:27:24.632Z,28.92
2018-04-12T13:29:52.807Z,28.42
2018-04-12T13:32:20.949Z,27.50
2018-04-12T13:34:49.124Z,25.88
2018-04-12T13:37:17.292Z,26.80
2018-04-12T13:39:45.456Z,28.55
2018-04-12T13:42:13.600Z,26.37
2018-04-12T13:44:41.776Z,24.27
2018-04-12T13:47:09.921Z,26.55
2018-04-12T13:49:38.231Z,28.75
2018-04-12T13:52:06.392Z,28.45
2018-04-12T13:54:34.540Z,25.33
2018-04-12T13:57:02.722Z,26.08
2018-04-12T13:59:30.889Z,25.42
2018-04-12T14:01:59.071Z,25.80
2018-04-12T14:04:27.233Z,27.87
2018-04-12T14:06:55.498Z,24.55
2018-04-12T14:09:23.654Z,26.15
2018-04-12T14:11:52.777Z,26.23
2018-04-12T14:14:20.948Z,26.25
2018-04-12T14:16:49.116Z,26.10
2018-04-12T14:19:17.256Z,25.50
2018-04-12T14:21:46.183Z,23.80
2018-04-12T14:24:14.329Z,24.40
2018-04-12T14:26:42.552Z,25.35
2018-04-12T14:29:10.706Z,23.45
2018-04-12T14:31:38.872Z,24.85
2018-04-12T14:34:07.013Z,24.80
2018-04-12T14:36:35.939Z,26.20
2018-04-12T14:39:04.080Z,25.73
2018-04-12T14:41:32.249Z,24.95
2018-04-12T14:44:00.385Z,23.12
2018-04-12T14:46:28.560Z,24.70
2018-04-12T14:48:56.700Z,24.80
2018-04-12T14:51:24.860Z,23.42
2018-04-12T14:53:53.002Z,24.25
2018-04-12T14:56:21.933Z,25.23
2018-04-12T14:58:50.071Z,25.12
2018-04-12T15:01:19.000Z,26.65
2018-04-12T15:03:47.142Z,23.58
2018-04-12T15:06:16.069Z,24.55
2018-04-12T15:08:44.204Z,24.33
2018-04-12T15:11:13.149Z,23.98
2018-04-12T15:13:41.293Z,22.67
2018-04-12T15:16:09.458Z,21.85
2018-04-12T15:18:37.596Z,23.75
2018-04-12T15:21:05.762Z,21.10
2018-04-12T15:23:33.983Z,23.38
2018-04-12T15:26:02.144Z,26.40
2018-04-12T15:28:30.356Z,21.90
2018-04-12T15:30:58.524Z,22.60
2018-04-12T15:33:26.661Z,22.15
2018-04-12T15:35:54.823Z,22.10
2018-04-12T15:38:23.748Z,22.58
2018-04-12T15:40:51.933Z,22.20
2018-04-12T15:43:20.112Z,22.00
2018-04-12T15:45:48.293Z,20.98
2018-04-12T15:48:16.638Z,19.98
2018-04-12T15:50:44.808Z,20.83
2018-04-12T15:53:12.948Z,19.50
2018-04-12T15:55:41.120Z,21.77
2018-04-12T15:58:09.315Z,20.70
2018-04-12T16:00:37.448Z,20.90
2018-04-12T16:03:05.617Z,21.23
2018-04-12T16:05:33.765Z,20.10
2018-04-12T16:08:01.952Z,19.87
2018-04-12T16:10:30.106Z,20.85
2018-04-12T16:12:58.309Z,20.35
2018-04-12T16:15:26.448Z,19.48
2018-04-12T16:17:54.620Z,19.37
2018-04-12T16:20:22.751Z,19.50
2018-04-12T16:22:50.897Z,18.95
2018-04-12T16:25:19.068Z,20.35
2018-04-12T16:27:47.228Z,20.23
2018-04-12T16:30:15.470Z,19.70
2018-04-12T16:32:43.660Z,18.90
2018-04-12T16:35:11.842Z,20.08
2018-04-12T16:37:40.188Z,19.00
2018-04-12T16:40:08.361Z,20.00
2018-04-12T16:42:37.297Z,19.33
2018-04-12T16:45:05.466Z,19.85
2018-04-12T16:47:33.636Z,18.75
2018-04-12T16:50:01.788Z,19.02
2018-04-12T16:52:30.003Z,19.12
2018-04-12T16:54:58.147Z,19.50
2018-04-12T16:57:26.401Z,18.35
2018-04-12T16:59:54.556Z,17.87
2018-04-12T17:02:22.814Z,17.65
2018-04-12T17:04:51.007Z,16.80
2018-04-12T17:07:19.211Z,18.05
2018-04-12T17:09:47.361Z,17.02
2018-04-12T17:12:16.390Z,17.85
2018-04-12T17:14:44.626Z,18.80
2018-04-12T17:17:12.835Z,19.70
2018-04-12T17:19:40.972Z,18.10
2018-04-12T17:22:09.137Z,18.62
2018-04-12T17:24:37.285Z,18.98
2018-04-12T17:27:05.465Z,20.10
2018-04-12T17:29:33.595Z,22.27
2018-04-12T17:32:01.781Z,20.62
2018-04-12T17:34:29.923Z,21.15
2018-04-12T17:36:58.847Z,19.90
2018-04-12T17:39:26.992Z,19.35
2018-04-12T17:41:55.160Z,17.67
2018-04-12T17:44:23.314Z,17.42
2018-04-12T17:46:51.478Z,18.37
2018-04-12T17:49:19.659Z,17.37
2018-04-12T17:51:47.838Z,17.92
2018-04-12T17:54:15.979Z,17.83
2018-04-12T17:56:44.140Z,18.12
2018-04-12T17:59:18.148Z,19.73
2018-04-12T18:01:46.339Z,20.23
2018-04-12T18:04:14.479Z,17.62
2018-04-12T18:06:42.688Z,18.50
2018-04-12T18:09:10.832Z,18.33
2018-04-12T18:11:38.979Z,18.27
2018-04-12T18:14:07.153Z,19.30
2018-04-12T18:16:35.320Z,17.95
2018-04-12T18:19:03.484Z,17.95
2018-04-12T18:21:32.385Z,19.70
2018-04-12T18:24:00.545Z,20.45
2018-04-12T18:26:29.444Z,18.02
2018-04-12T18:28:57.611Z,20.80
2018-04-12T18:31:26.521Z,18.60
2018-04-12T18:33:54.675Z,18.87
2018-04-12T18:36:23.578Z,18.73
2018-04-12T18:38:51.728Z,19.02
2018-04-12T18:41:19.855Z,19.67
2018-04-12T18:43:48.015Z,17.70
2018-04-12T18:46:16.169Z,20.58
2018-04-12T18:48:44.339Z,19.70
2018-04-12T18:51:13.249Z,17.58
2018-04-12T18:53:41.408Z,18.73
2018-04-12T18:56:10.341Z,17.83
2018-04-12T18:58:38.523Z,18.73
2018-04-12T19:01:06.665Z,19.45
2018-04-12T19:03:34.820Z,18.25
2018-04-12T19:06:02.960Z,20.20
2018-04-12T19:08:31.129Z,19.33
2018-04-12T19:10:59.275Z,17.92
2018-04-12T19:13:27.491Z,19.27
2018-04-12T19:15:55.646Z,20.52
2018-04-12T19:18:23.815Z,18.52
2018-04-12T19:20:51.972Z,19.77
2018-04-12T19:23:20.113Z,19.40
2018-04-12T19:25:48.280Z,22.70
2018-04-12T19:28:16.451Z,21.35
2018-04-12T19:30:44.623Z,20.65
2018-04-12T19:33:13.553Z,19.48
2018-04-12T19:35:41.704Z,20.05
2018-04-12T19:38:10.030Z,18.85
2018-04-12T19:40:38.185Z,20.02
2018-04-12T19:43:06.346Z,19.95
2018-04-12T19:45:34.481Z,19.25
2018-04-12T19:48:02.651Z,20.55
2018-04-12T19:50:31.972Z,20.17
2018-04-12T19:53:00.141Z,19.48
2018-04-12T19:55:28.273Z,19.15
2018-04-12T19:57:56.460Z,22.50
2018-04-12T20:00:24.599Z,21.12
2018-04-12T20:02:52.793Z,21.33
2018-04-12T20:05:20.932Z,21.15
2018-04-12T20:07:49.107Z,22.00
2018-04-12T20:10:17.268Z,23.70
2018-04-12T20:12:45.399Z,21.02
2018-04-12T20:15:13.568Z,22.00
2018-04-12T20:17:41.752Z,22.62
2018-04-12T20:20:09.916Z,22.20
2018-04-12T20:22:38.116Z,23.23
2018-04-12T20:25:06.285Z,24.58
2018-04-12T20:27:35.191Z,22.60
2018-04-12T20:30:03.350Z,23.92
2018-04-12T20:32:31.483Z,23.92
2018-04-12T20:34:59.644Z,24.63
2018-04-12T20:37:27.784Z,21.80
2018-04-12T20:39:56.024Z,23.10
2018-04-12T20:42:24.177Z,24.37
2018-04-12T20:44:53.211Z,23.65
2018-04-12T20:47:21.344Z,22.87
2018-04-12T20:49:49.516Z,22.52
2018-04-12T20:52:17.729Z,23.30
2018-04-12T20:54:45.903Z,24.90
2018-04-12T20:57:14.048Z,24.80
2018-04-12T20:59:42.212Z,24.75
2018-04-12T21:02:10.359Z,22.83
2018-04-12T21:04:38.528Z,24.08
2018-04-12T21:07:06.661Z,23.30
2018-04-12T21:09:34.818Z,22.73
2018-04-12T21:12:02.952Z,23.52
2018-04-12T21:14:31.112Z,23.12
2018-04-12T21:16:59.250Z,23.67
2018-04-12T21:19:27.425Z,24.37
2018-04-12T21:21:56.323Z,26.80
2018-04-12T21:24:24.487Z,27.73
2018-04-12T21:26:53.393Z,24.75
2018-04-12T21:29:21.558Z,25.42
2018-04-12T21:31:50.457Z,25.98
2018-04-12T21:34:18.618Z,24.30
2018-04-12T21:36:47.519Z,24.58
2018-04-12T21:39:15.684Z,24.40
2018-04-12T21:41:44.585Z,28.10
2018-04-12T21:44:12.750Z,25.88
2018-04-12T21:46:41.648Z,24.70
2018-04-12T21:49:09.820Z,25.33
2018-04-12T21:51:37.955Z,25.58
2018-04-12T21:54:06.119Z,26.20
2018-04-12T21:56:34.260Z,24.05
2018-04-12T21:59:02.432Z,26.15
2018-04-12T22:01:30.570Z,26.58
2018-04-12T22:03:58.737Z,26.37
2018-04-12T22:06:26.874Z,25.75
2018-04-12T22:08:55.024Z,24.45
2018-04-12T22:11:23.160Z,27.67
2018-04-12T22:13:51.346Z,26.35
2018-04-12T22:16:19.521Z,27.40
2018-04-12T22:18:48.424Z,26.67
2018-04-12T22:21:16.612Z,24.98
2018-04-12T22:23:44.802Z,25.67
2018-04-12T22:26:12.960Z,26.58
2018-04-12T22:28:41.096Z,26.70
2018-04-12T22:31:10.028Z,24.55
2018-04-12T22:33:38.189Z,26.60
2018-04-12T22:36:06.395Z,25.67
2018-04-12T22:38:34.577Z,26.20
2018-04-12T22:41:02.716Z,29.23
2018-04-12T22:43:30.852Z,25.73
2018-04-12T22:45:59.007Z,25.98
2018-04-12T22:48:27.135Z,27.65
2018-04-12T22:50:55.292Z,27.52
2018-04-12T22:53:23.428Z,26.90
2018-04-12T22:55:51.588Z,26.33
2018-04-12T22:58:19.721Z,27.05
2018-04-12T23:00:48.600Z,26.50
2018-04-12T23:03:16.737Z,26.12
2018-04-12T23:05:44.896Z,28.27
2018-04-12T23:08:13.026Z,28.05
2018-04-12T23:10:41.180Z,26.25
2018-04-12T23:13:09.316Z,25.02
2018-04-12T23:15:37.471Z,27.70
2018-04-12T23:18:05.599Z,29.05
2018-04-12T23:20:33.759Z,26.25
2018-04-12T23:23:01.894Z,28.10
2018-04-12T23:25:30.055Z,26.42
2018-04-12T23:27:58.188Z,27.33
2018-04-12T23:30:27.114Z,28.67
2018-04-12T23:32:55.249Z,29.30
2018-04-12T23:35:24.172Z,27.25
2018-04-12T23:37:52.304Z,29.50
2018-04-12T23:40:21.224Z,29.40
2018-04-12T23:42:49.368Z,26.98
2018-04-12T23:45:18.287Z,29.17
2018-04-12T23:47:46.425Z,27.48
2018-04-12T23:50:14.585Z,31.50
2018-04-12T23:52:42.720Z,27.23
2018-04-12T23:55:10.884Z,27.85
2018-04-12T23:57:39.028Z,30.40
